createdAt,value
2019-04-14T00:01:07.262Z,64.60
2019-04-14T00:03:54.348Z,64.70
2019-04-14T00:06:24.406Z,64.90
2019-04-14T00:08:54.257Z,64.60
2019-04-14T00:11:23.430Z,64.70
2019-04-14T00:13:52.440Z,64.90
2019-04-14T00:16:21.179Z,64.90
2019-04-14T00:18:51.166Z,65.00
2019-04-14T00:21:20.033Z,65.10
2019-04-14T00:23:48.753Z,65.10
2019-04-14T00:26:35.579Z,65.10
2019-04-14T00:29:10.865Z,65.10
2019-04-14T00:31:41.140Z,64.70
2019-04-14T00:34:20.821Z,64.80
2019-04-14T00:37:07.759Z,64.80
2019-04-14T00:39:40.051Z,65.30
2019-04-14T00:42:34.211Z,65.30
2019-04-14T00:45:30.595Z,65.30
2019-04-14T00:48:02.358Z,65.10
2019-04-14T00:50:23.299Z,65.50
2019-04-14T00:52:52.297Z,65.60
2019-04-14T00:55:21.128Z,65.60
2019-04-14T00:57:50.876Z,65.60
2019-04-14T01:00:20.744Z,65.70
2019-04-14T01:02:51.602Z,65.80
2019-04-14T01:05:21.678Z,66.70
2019-04-14T01:07:50.565Z,66.30
2019-04-14T01:10:19.282Z,66.30
2019-04-14T01:12:48.001Z,66.20
2019-04-14T01:15:17.917Z,66.40
2019-04-14T01:17:46.705Z,66.40
2019-04-14T01:20:16.632Z,66.40
2019-04-14T01:22:46.593Z,66.70
2019-04-14T01:25:15.529Z,66.80
2019-04-14T01:27:45.062Z,66.70
2019-04-14T01:30:13.945Z,66.60
2019-04-14T01:32:43.636Z,66.70
2019-04-14T01:35:12.405Z,67.10
2019-04-14T01:37:41.898Z,66.90
2019-04-14T01:40:11.980Z,66.90
2019-04-14T01:42:41.988Z,67.00
2019-04-14T01:45:12.718Z,67.00
2019-04-14T01:47:42.065Z,67.10
2019-04-14T01:50:11.062Z,66.90
2019-04-14T01:52:56.775Z,67.00
2019-04-14T01:55:41.635Z,67.00
2019-04-14T01:58:16.398Z,67.00
2019-04-14T02:01:19.698Z,67.10
2019-04-14T02:03:48.425Z,67.10
2019-04-14T02:06:17.984Z,67.00
2019-04-14T02:08:47.923Z,67.30
2019-04-14T02:11:18.287Z,67.20
2019-04-14T02:13:48.473Z,67.20
2019-04-14T02:16:25.862Z,67.30
2019-04-14T02:18:50.661Z,67.40
2019-04-14T02:21:19.456Z,67.40
2019-04-14T02:23:49.688Z,67.50
2019-04-14T02:26:19.715Z,67.50
2019-04-14T02:28:48.593Z,67.60
2019-04-14T02:31:39.276Z,67.60
2019-04-14T02:34:19.216Z,67.80
2019-04-14T02:36:48.028Z,67.60
2019-04-14T02:41:56.769Z,67.90
2019-04-14T02:47:11.602Z,67.90
2019-04-14T02:49:14.656Z,68.00
2019-04-14T02:51:48.446Z,67.90
2019-04-14T02:59:22.718Z,68.30
2019-04-14T03:01:54.770Z,68.50
2019-04-14T03:04:18.830Z,68.50
2019-04-14T03:06:50.249Z,68.60
2019-04-14T03:09:34.715Z,68.60
2019-04-14T03:11:51.306Z,68.60
2019-04-14T03:14:25.830Z,68.60
2019-04-14T03:17:14.249Z,68.60
2019-04-14T03:20:05.543Z,68.70
2019-04-14T03:22:38.453Z,68.60
2019-04-14T03:25:00.546Z,68.80
2019-04-14T03:27:50.544Z,68.90
2019-04-14T03:36:05.943Z,68.70
2019-04-14T03:37:59.204Z,68.60
2019-04-14T03:40:35.935Z,68.80
2019-04-14T03:43:03.895Z,68.90
2019-04-14T03:45:46.843Z,68.90
2019-04-14T03:50:29.173Z,69.20
2019-04-14T03:53:13.239Z,69.30
2019-04-14T03:55:22.677Z,69.40
2019-04-14T03:57:37.565Z,69.30
2019-04-14T04:00:07.467Z,69.00
2019-04-14T04:02:36.350Z,69.30
2019-04-14T04:05:06.321Z,69.20
2019-04-14T04:07:36.420Z,69.20
2019-04-14T04:10:11.456Z,69.30
2019-04-14T04:12:40.181Z,69.40
2019-04-14T04:15:09.049Z,69.60
2019-04-14T04:17:45.148Z,69.40
2019-04-14T04:20:33.086Z,69.30
2019-04-14T04:23:11.734Z,69.60
2019-04-14T04:25:52.739Z,69.40
2019-04-14T04:29:00.434Z,69.40
2019-04-14T04:31:52.541Z,69.70
2019-04-14T04:34:59.842Z,69.70
2019-04-14T04:37:54.178Z,70.00
2019-04-14T04:40:29.058Z,69.80
2019-04-14T04:42:58.986Z,70.30
2019-04-14T04:45:27.845Z,70.30
2019-04-14T04:47:57.681Z,70.20
2019-04-14T04:50:26.508Z,70.40
2019-04-14T04:52:56.173Z,70.30
2019-04-14T04:55:26.268Z,70.40
2019-04-14T04:57:55.206Z,70.40
2019-04-14T05:00:24.442Z,70.50
2019-04-14T05:02:53.353Z,71.20
2019-04-14T05:05:58.191Z,70.40
2019-04-14T05:08:26.925Z,70.40
2019-04-14T05:11:01.465Z,69.90
2019-04-14T05:13:35.935Z,70.00
2019-04-14T05:16:04.801Z,69.80
2019-04-14T05:18:33.666Z,69.90
2019-04-14T05:21:02.406Z,70.00
2019-04-14T05:23:31.983Z,70.10
2019-04-14T05:26:02.638Z,69.90
2019-04-14T05:28:31.603Z,69.80
2019-04-14T05:31:01.289Z,69.90
2019-04-14T05:33:31.368Z,69.90
2019-04-14T05:36:00.261Z,69.90
2019-04-14T05:38:31.916Z,70.10
2019-04-14T05:41:00.427Z,70.50
2019-04-14T05:43:38.663Z,70.70
2019-04-14T05:45:59.837Z,71.10
2019-04-14T05:48:29.395Z,71.20
2019-04-14T05:50:58.373Z,71.40
2019-04-14T05:53:28.267Z,71.40
2019-04-14T05:55:57.339Z,72.00
2019-04-14T05:58:26.059Z,72.80
2019-04-14T06:00:55.815Z,72.60
2019-04-14T06:03:25.683Z,72.50
2019-04-14T06:05:54.633Z,72.50
2019-04-14T06:08:23.402Z,72.70
2019-04-14T06:10:52.173Z,72.90
2019-04-14T06:13:20.897Z,72.70
2019-04-14T06:15:49.623Z,72.70
2019-04-14T06:18:18.389Z,72.70
2019-04-14T06:20:47.129Z,72.90
2019-04-14T06:23:15.850Z,72.80
2019-04-14T06:25:44.566Z,73.10
2019-04-14T06:28:13.321Z,72.90
2019-04-14T06:31:01.721Z,72.70
2019-04-14T06:33:45.905Z,72.40
2019-04-14T06:36:36.965Z,72.40
2019-04-14T06:39:13.921Z,72.50
2019-04-14T06:41:42.643Z,72.60
2019-04-14T06:44:11.354Z,72.60
2019-04-14T06:46:40.069Z,72.30
2019-04-14T06:49:08.783Z,72.50
2019-04-14T06:51:37.655Z,72.00
2019-04-14T06:54:06.476Z,69.60
2019-04-14T06:56:35.201Z,72.40
2019-04-14T06:59:04.078Z,72.50
2019-04-14T07:01:32.805Z,72.60
2019-04-14T07:04:01.657Z,72.60
2019-04-14T07:06:30.392Z,72.10
2019-04-14T07:09:00.405Z,72.40
2019-04-14T07:11:30.690Z,72.20
2019-04-14T07:13:59.389Z,71.70
2019-04-14T07:16:29.937Z,72.60
2019-04-14T07:18:58.735Z,72.20
2019-04-14T07:21:27.671Z,72.40
2019-04-14T07:23:58.863Z,72.30
2019-04-14T07:26:27.602Z,72.10
2019-04-14T07:28:57.135Z,72.00
2019-04-14T07:31:41.939Z,72.10
2019-04-14T07:34:21.884Z,72.00
2019-04-14T07:37:12.268Z,71.70
2019-04-14T07:39:48.284Z,71.70
2019-04-14T07:42:45.149Z,71.90
2019-04-14T07:45:39.009Z,71.90
2019-04-14T07:48:12.375Z,71.70
2019-04-14T07:50:53.120Z,71.40
2019-04-14T07:53:53.192Z,71.50
2019-04-14T07:56:41.182Z,71.40
2019-04-14T07:59:20.442Z,71.20
2019-04-14T08:02:08.037Z,71.50
2019-04-14T08:04:40.890Z,71.30
2019-04-14T08:07:09.672Z,71.40
2019-04-14T08:09:38.439Z,71.30
2019-04-14T08:12:07.305Z,70.90
2019-04-14T08:14:36.041Z,70.90
2019-04-14T08:17:04.845Z,71.20
2019-04-14T08:19:33.682Z,71.00
2019-04-14T08:22:02.564Z,70.70
2019-04-14T08:24:31.307Z,70.30
2019-04-14T08:27:00.106Z,69.70
2019-04-14T08:29:28.861Z,69.40
2019-04-14T08:31:57.621Z,69.40
2019-04-14T08:34:26.363Z,69.50
2019-04-14T08:36:55.091Z,69.40
2019-04-14T08:39:23.826Z,69.20
2019-04-14T08:41:59.957Z,68.90
2019-04-14T08:44:46.182Z,69.00
2019-04-14T08:47:34.017Z,68.90
2019-04-14T08:50:21.685Z,68.50
2019-04-14T08:53:10.478Z,65.00
2019-04-14T08:56:05.407Z,68.30
2019-04-14T08:58:54.681Z,68.20
2019-04-14T09:01:42.514Z,67.90
2019-04-14T09:04:30.385Z,67.30
2019-04-14T09:07:21.604Z,66.80
2019-04-14T09:09:55.149Z,66.10
2019-04-14T09:12:25.938Z,65.70
2019-04-14T09:14:57.123Z,65.60
2019-04-14T09:17:26.273Z,65.20
2019-04-14T09:19:54.977Z,64.90
2019-04-14T09:22:23.826Z,64.70
2019-04-14T09:24:52.597Z,63.90
2019-04-14T09:27:21.319Z,64.20
2019-04-14T09:29:52.218Z,64.10
2019-04-14T09:32:20.921Z,62.60
2019-04-14T09:34:52.479Z,61.60
2019-04-14T09:37:21.223Z,58.00
2019-04-14T09:39:50.044Z,61.20
2019-04-14T09:42:18.805Z,61.50
2019-04-14T09:44:47.593Z,60.60
2019-04-14T09:47:16.339Z,59.70
2019-04-14T09:49:45.127Z,59.10
2019-04-14T09:52:13.890Z,58.80
2019-04-14T09:54:42.663Z,58.50
2019-04-14T09:57:11.371Z,58.10
2019-04-14T09:59:40.192Z,58.60
2019-04-14T10:02:09.003Z,58.20
2019-04-14T10:04:37.895Z,58.00
2019-04-14T10:07:06.727Z,57.30
2019-04-14T10:09:35.538Z,57.90
2019-04-14T10:12:04.481Z,55.70
2019-04-14T10:14:33.198Z,55.80
2019-04-14T10:17:01.986Z,55.80
2019-04-14T10:19:30.713Z,55.20
2019-04-14T10:21:59.538Z,54.80
2019-04-14T10:24:28.289Z,54.40
2019-04-14T10:26:57.030Z,54.40
2019-04-14T10:29:25.801Z,54.20
2019-04-14T10:31:54.705Z,53.80
2019-04-14T10:34:23.438Z,54.00
2019-04-14T10:36:52.270Z,53.30
2019-04-14T10:39:21.025Z,53.50
2019-04-14T10:41:49.993Z,53.10
2019-04-14T10:44:18.746Z,52.50
2019-04-14T10:46:47.462Z,51.40
2019-04-14T10:49:16.216Z,51.10
2019-04-14T10:51:44.939Z,50.40
2019-04-14T10:54:13.692Z,50.00
2019-04-14T10:56:42.480Z,49.10
2019-04-14T10:59:11.233Z,49.10
2019-04-14T11:01:40.008Z,49.00
2019-04-14T11:04:08.973Z,49.10
2019-04-14T11:06:49.233Z,49.50
2019-04-14T11:09:18.056Z,49.40
2019-04-14T11:11:46.836Z,49.10
2019-04-14T11:14:15.598Z,49.20
2019-04-14T11:16:47.239Z,48.30
2019-04-14T11:19:16.143Z,48.40
2019-04-14T11:21:45.041Z,48.70
2019-04-14T11:24:14.223Z,46.90
2019-04-14T11:26:43.009Z,46.70
2019-04-14T11:29:11.921Z,46.20
2019-04-14T11:32:15.299Z,45.70
2019-04-14T11:35:03.233Z,45.10
2019-04-14T11:37:50.018Z,44.80
2019-04-14T11:40:21.850Z,44.80
2019-04-14T11:42:52.543Z,44.40
2019-04-14T11:45:21.453Z,44.20
2019-04-14T11:47:50.595Z,43.80
2019-04-14T11:50:19.709Z,42.80
2019-04-14T11:52:48.620Z,43.00
2019-04-14T11:55:20.496Z,43.20
2019-04-14T11:57:49.658Z,41.50
2019-04-14T12:00:38.142Z,41.90
2019-04-14T12:03:20.205Z,41.40
2019-04-14T12:06:05.029Z,41.50
2019-04-14T12:08:50.705Z,41.90
2019-04-14T12:11:20.427Z,41.70
2019-04-14T12:13:49.565Z,42.00
2019-04-14T12:16:18.606Z,41.50
2019-04-14T12:18:47.379Z,40.40
2019-04-14T12:21:16.098Z,41.60
2019-04-14T12:23:44.813Z,40.90
2019-04-14T12:26:13.553Z,41.00
2019-04-14T12:28:42.692Z,41.40
2019-04-14T12:31:13.087Z,40.00
2019-04-14T12:33:42.169Z,39.50
2019-04-14T12:36:12.908Z,39.20
2019-04-14T12:38:41.809Z,39.30
2019-04-14T12:41:17.716Z,39.10
2019-04-14T12:44:11.077Z,39.80
2019-04-14T12:46:59.318Z,39.10
2019-04-14T12:49:32.444Z,38.30
2019-04-14T12:52:21.303Z,38.10
2019-04-14T12:54:48.622Z,39.50
2019-04-14T12:57:24.845Z,38.80
2019-04-14T12:59:53.567Z,37.90
2019-04-14T13:02:29.362Z,38.70
2019-04-14T13:04:58.250Z,37.90
2019-04-14T13:07:46.664Z,37.30
2019-04-14T13:10:15.571Z,34.60
2019-04-14T13:12:46.246Z,37.60
2019-04-14T13:15:15.042Z,37.00
2019-04-14T13:17:44.378Z,37.30
2019-04-14T13:20:13.386Z,38.30
2019-04-14T13:22:42.200Z,38.60
2019-04-14T13:25:11.203Z,39.20
2019-04-14T13:27:40.005Z,38.80
2019-04-14T13:30:11.314Z,38.00
2019-04-14T13:32:40.639Z,36.40
2019-04-14T13:35:09.988Z,36.90
2019-04-14T13:37:38.717Z,36.70
2019-04-14T13:40:08.993Z,37.50
2019-04-14T13:42:37.923Z,36.80
2019-04-14T13:45:07.502Z,36.30
2019-04-14T13:47:36.368Z,35.90
2019-04-14T13:50:05.845Z,35.90
2019-04-14T13:52:47.232Z,36.70
2019-04-14T13:55:18.195Z,36.50
2019-04-14T13:57:47.024Z,36.20
2019-04-14T14:00:16.522Z,36.30
2019-04-14T14:02:45.271Z,36.30
2019-04-14T14:05:14.340Z,36.50
2019-04-14T14:07:43.162Z,36.40
2019-04-14T14:10:13.554Z,36.50
2019-04-14T14:12:48.265Z,37.20
2019-04-14T14:15:29.963Z,36.80
2019-04-14T14:18:17.859Z,35.50
2019-04-14T14:20:55.808Z,35.20
2019-04-14T14:23:28.933Z,36.60
2019-04-14T14:26:04.466Z,35.60
2019-04-14T14:28:33.185Z,35.40
2019-04-14T14:31:01.986Z,35.80
2019-04-14T14:33:30.713Z,35.90
2019-04-14T14:35:59.466Z,35.60
2019-04-14T14:38:28.193Z,36.30
2019-04-14T14:40:58.654Z,35.80
2019-04-14T14:43:27.515Z,35.60
2019-04-14T14:46:18.465Z,34.60
2019-04-14T14:48:54.390Z,34.10
2019-04-14T14:51:42.225Z,34.40
2019-04-14T14:54:10.985Z,34.20
2019-04-14T14:56:39.789Z,34.80
2019-04-14T14:59:08.673Z,34.60
2019-04-14T15:01:37.409Z,34.50
2019-04-14T15:04:06.125Z,35.00
2019-04-14T15:06:35.285Z,34.30
2019-04-14T15:09:06.286Z,33.60
2019-04-14T15:11:35.207Z,34.10
2019-04-14T15:14:04.995Z,33.30
2019-04-14T15:16:33.781Z,33.00
2019-04-14T15:19:02.638Z,33.50
2019-04-14T15:21:31.523Z,32.90
2019-04-14T15:24:00.597Z,33.10
2019-04-14T15:26:29.433Z,33.20
2019-04-14T15:28:58.327Z,32.20
2019-04-14T15:31:27.140Z,31.70
2019-04-14T15:33:55.881Z,32.00
2019-04-14T15:36:24.663Z,32.30
2019-04-14T15:38:53.493Z,32.60
2019-04-14T15:41:22.259Z,31.30
2019-04-14T15:43:51.030Z,31.10
2019-04-14T15:46:19.794Z,31.00
2019-04-14T15:48:48.586Z,31.90
2019-04-14T15:51:17.345Z,31.50
2019-04-14T15:53:46.087Z,31.30
2019-04-14T15:56:23.589Z,32.20
2019-04-14T15:59:01.162Z,31.40
2019-04-14T16:01:43.552Z,31.50
2019-04-14T16:04:23.184Z,31.40
2019-04-14T16:07:16.667Z,31.60
2019-04-14T16:10:03.276Z,31.70
2019-04-14T16:12:51.194Z,32.10
2019-04-14T16:15:26.820Z,31.50
2019-04-14T16:18:01.149Z,31.10
2019-04-14T16:20:31.907Z,30.60
2019-04-14T16:23:00.784Z,31.00
2019-04-14T16:25:45.171Z,29.80
2019-04-14T16:28:28.318Z,29.60
2019-04-14T16:31:16.203Z,29.50
2019-04-14T16:34:02.539Z,29.40
2019-04-14T16:36:32.683Z,29.50
2019-04-14T16:39:01.585Z,29.80
2019-04-14T16:41:30.346Z,30.00
2019-04-14T16:43:59.188Z,30.70
2019-04-14T16:46:28.086Z,30.70
2019-04-14T16:48:56.939Z,31.00
2019-04-14T16:51:32.963Z,31.20
2019-04-14T16:54:06.650Z,31.50
2019-04-14T16:56:53.278Z,31.70
2019-04-14T16:59:22.025Z,32.10
2019-04-14T17:01:51.191Z,32.60
2019-04-14T17:04:19.973Z,32.60
2019-04-14T17:06:48.693Z,32.50
2019-04-14T17:09:17.420Z,32.60
2019-04-14T17:11:46.178Z,32.80
2019-04-14T17:14:23.503Z,33.10
2019-04-14T17:17:16.013Z,33.30
2019-04-14T17:19:57.034Z,33.50
2019-04-14T17:22:52.960Z,33.60
2019-04-14T17:25:32.551Z,33.80
2019-04-14T17:28:19.309Z,33.90
2019-04-14T17:30:58.759Z,33.80
2019-04-14T17:33:41.858Z,34.10
2019-04-14T17:36:28.570Z,34.20
2019-04-14T17:39:19.658Z,34.10
2019-04-14T17:41:56.692Z,34.10
2019-04-14T17:44:44.566Z,34.50
2019-04-14T17:47:31.181Z,34.70
2019-04-14T17:50:08.389Z,34.80
2019-04-14T17:52:39.830Z,35.30
2019-04-14T17:55:13.961Z,35.70
2019-04-14T17:57:52.715Z,35.80
2019-04-14T18:00:43.599Z,35.70
2019-04-14T18:03:30.731Z,36.30
2019-04-14T18:06:04.763Z,36.40
2019-04-14T18:08:43.653Z,36.60
2019-04-14T18:11:19.347Z,37.00
2019-04-14T18:14:13.438Z,37.20
2019-04-14T18:17:00.069Z,37.30
2019-04-14T18:19:35.669Z,37.50
2019-04-14T18:22:04.512Z,37.60
2019-04-14T18:24:42.292Z,37.70
2019-04-14T18:27:03.814Z,37.70
2019-04-14T18:29:51.739Z,38.10
2019-04-14T18:32:39.639Z,38.20
2019-04-14T18:35:20.085Z,38.30
2019-04-14T18:38:23.226Z,38.40
2019-04-14T18:40:55.982Z,38.60
2019-04-14T18:43:44.872Z,38.60
2019-04-14T18:46:24.996Z,38.50
2019-04-14T18:49:04.926Z,39.10
2019-04-14T18:51:43.476Z,39.70
2019-04-14T18:54:34.161Z,39.10
2019-04-14T18:57:20.374Z,39.90
2019-04-14T19:00:07.105Z,39.30
2019-04-14T19:02:35.925Z,39.50
2019-04-14T19:05:05.585Z,39.50
2019-04-14T19:07:34.321Z,39.60
2019-04-14T19:10:03.778Z,39.80
2019-04-14T19:12:40.675Z,39.90
2019-04-14T19:15:41.030Z,40.00
2019-04-14T19:18:31.441Z,40.30
2019-04-14T19:21:03.457Z,40.40
2019-04-14T19:23:32.229Z,40.50
2019-04-14T19:26:01.086Z,40.80
2019-04-14T19:28:29.937Z,40.50
2019-04-14T19:30:58.836Z,41.20
2019-04-14T19:33:27.576Z,41.20
2019-04-14T19:35:56.543Z,41.40
2019-04-14T19:38:25.373Z,41.50
2019-04-14T19:40:54.095Z,41.70
2019-04-14T19:43:24.327Z,41.90
2019-04-14T19:45:53.221Z,41.80
2019-04-14T19:48:22.009Z,42.00
2019-04-14T19:50:50.750Z,42.00
2019-04-14T19:53:19.482Z,42.30
2019-04-14T19:55:48.194Z,42.30
2019-04-14T19:58:17.149Z,42.50
2019-04-14T20:00:45.908Z,42.40
2019-04-14T20:03:14.695Z,42.60
2019-04-14T20:05:43.429Z,42.70
2019-04-14T20:08:12.241Z,42.90
2019-04-14T20:10:41.030Z,43.30
2019-04-14T20:13:09.766Z,43.00
2019-04-14T20:16:04.207Z,43.20
2019-04-14T20:18:44.566Z,43.10
2019-04-14T20:21:31.457Z,43.20
2019-04-14T20:24:11.253Z,43.40
2019-04-14T20:27:08.113Z,43.50
2019-04-14T20:29:39.211Z,43.60
2019-04-14T20:32:13.765Z,43.80
2019-04-14T20:34:42.837Z,43.80
2019-04-14T20:37:13.113Z,43.80
2019-04-14T20:39:41.981Z,44.10
2019-04-14T20:42:11.045Z,44.20
2019-04-14T20:44:39.787Z,44.30
2019-04-14T20:47:09.348Z,44.40
2019-04-14T20:49:38.948Z,44.50
2019-04-14T20:52:08.773Z,44.90
2019-04-14T20:54:37.521Z,45.00
2019-04-14T20:57:06.501Z,45.10
2019-04-14T20:59:35.254Z,45.20
2019-04-14T21:02:22.138Z,45.30
2019-04-14T21:04:58.578Z,45.50
2019-04-14T21:08:04.700Z,45.60
2019-04-14T21:10:40.045Z,45.80
2019-04-14T21:13:17.554Z,45.60
2019-04-14T21:15:50.124Z,45.90
2019-04-14T21:18:37.014Z,45.80
2019-04-14T21:21:23.225Z,46.10
2019-04-14T21:24:20.381Z,46.30
2019-04-14T21:27:12.958Z,46.30
2019-04-14T21:30:02.096Z,46.50
2019-04-14T21:32:35.303Z,46.70
2019-04-14T21:35:10.341Z,47.00
2019-04-14T21:37:44.517Z,47.10
2019-04-14T21:40:31.158Z,47.40
2019-04-14T21:43:03.133Z,47.70
2019-04-14T21:45:32.004Z,47.80
2019-04-14T21:48:00.836Z,48.20
2019-04-14T21:50:29.641Z,48.30
2019-04-14T21:52:58.446Z,48.20
2019-04-14T21:55:27.327Z,48.60
2019-04-14T21:58:05.914Z,48.80
2019-04-14T22:01:47.639Z,48.80
2019-04-14T22:04:38.586Z,49.10
2019-04-14T22:07:26.691Z,48.90
2019-04-14T22:09:59.410Z,49.20
2019-04-14T22:12:28.617Z,49.40
2019-04-14T22:14:57.364Z,49.30
2019-04-14T22:17:26.183Z,49.50
2019-04-14T22:19:54.943Z,49.70
2019-04-14T22:22:23.734Z,49.90
2019-04-14T22:24:52.575Z,49.80
2019-04-14T22:27:21.432Z,50.10
2019-04-14T22:29:50.252Z,50.20
2019-04-14T22:32:19.030Z,50.20
2019-04-14T22:34:48.026Z,50.30
2019-04-14T22:37:16.849Z,50.00
2019-04-14T22:39:45.605Z,50.40
2019-04-14T22:42:14.426Z,50.40
2019-04-14T22:44:43.147Z,50.40
2019-04-14T22:47:11.897Z,50.60
2019-04-14T22:49:40.646Z,50.70
2019-04-14T22:52:09.410Z,50.80
2019-04-14T22:54:38.153Z,50.80
2019-04-14T22:57:06.902Z,50.80
2019-04-14T22:59:35.621Z,51.10
2019-04-14T23:02:13.537Z,51.00
2019-04-14T23:05:01.411Z,51.20
2019-04-14T23:07:52.237Z,51.30
2019-04-14T23:10:37.761Z,51.30
2019-04-14T23:13:14.597Z,51.40
2019-04-14T23:16:01.013Z,51.40
2019-04-14T23:18:52.129Z,51.40
2019-04-14T23:21:32.370Z,51.40
2019-04-14T23:24:29.599Z,51.60
2019-04-14T23:26:58.554Z,51.60
2019-04-14T23:29:27.405Z,51.80
2019-04-14T23:31:56.174Z,51.90
2019-04-14T23:34:24.980Z,52.00
2019-04-14T23:36:53.720Z,52.10
2019-04-14T23:39:22.441Z,52.10
2019-04-14T23:41:51.257Z,52.40
2019-04-14T23:44:20.050Z,52.50
2019-04-14T23:46:48.797Z,52.70
2019-04-14T23:49:17.548Z,53.00
2019-04-14T23:51:46.371Z,53.30
2019-04-14T23:54:15.113Z,53.40
2019-04-14T23:56:43.958Z,53.70
2019-04-14T23:59:12.827Z,53.70
